Alert, Canada
Current Conditions -  °F | °C
As of 2:00 PM on Thursday 23 Oct 2014 (Local Time) from CYLT Reporting Station
Light Snow Light Snow  
Wind Chill: -8°   Ceiling: 3400
Heat Index:   Visibility: 10mi
Dew Point: -4°   Wind: 6mph
Humidity: 72%   Direction: 280°W
Pressure: 29.87"   Gusts: NA
Location:  82.47°N, 62.5°W
Report Text: CYLT 231800Z 28005KT 10SM -SN OVC034 M16/M20 A2987 RMK SC8 FGBANK OVR WATER SLP120
Loading
Personal Weather Stations






























Interactive Weather Map New forecast layout! Learn more

10-Day Weather Forecast

Advertisements
Track Severe Weather on mobile